createdAt,value
2019-03-12T00:00:08.864Z,208.30
2019-03-12T00:04:20.031Z,213.23
2019-03-12T00:08:31.266Z,212.07
2019-03-12T00:12:42.638Z,215.70
2019-03-12T00:16:53.757Z,210.67
2019-03-12T00:21:06.456Z,213.23
2019-03-12T00:25:18.343Z,218.33
2019-03-12T00:29:32.144Z,215.43
2019-03-12T00:33:43.322Z,218.33
2019-03-12T00:37:54.448Z,223.07
2019-03-12T00:42:07.526Z,219.13
2019-03-12T00:46:18.871Z,218.07
2019-03-12T00:50:31.026Z,209.77
2019-03-12T00:54:42.282Z,214.47
2019-03-12T00:58:54.756Z,213.57
2019-03-12T01:03:06.140Z,211.27
2019-03-12T01:07:18.484Z,217.33
2019-03-12T01:11:29.747Z,215.13
2019-03-12T01:15:41.055Z,214.60
2019-03-12T01:19:52.271Z,217.60
2019-03-12T01:24:04.295Z,213.03
2019-03-12T01:28:16.940Z,222.47
2019-03-12T01:32:28.719Z,215.37
2019-03-12T01:36:41.788Z,217.53
2019-03-12T01:40:52.942Z,216.63
2019-03-12T01:45:04.183Z,221.33
2019-03-12T01:49:15.366Z,214.80
2019-03-12T01:53:26.618Z,215.27
2019-03-12T01:57:37.844Z,208.20
2019-03-12T02:01:49.105Z,214.00
2019-03-12T02:06:01.987Z,211.50
2019-03-12T02:10:14.652Z,208.13
2019-03-12T02:14:27.986Z,215.17
2019-03-12T02:18:39.346Z,207.60
2019-03-12T02:22:50.562Z,215.37
2019-03-12T02:27:01.937Z,211.47
2019-03-12T02:31:13.394Z,218.17
2019-03-12T02:35:24.506Z,218.10
2019-03-12T02:39:37.225Z,219.50
2019-03-12T02:43:48.641Z,217.63
2019-03-12T02:48:00.142Z,216.93
2019-03-12T02:52:11.549Z,223.80
2019-03-12T02:56:22.694Z,214.63
2019-03-12T03:00:34.946Z,218.13
2019-03-12T03:04:46.720Z,227.83
2019-03-12T03:08:56.909Z,220.80
2019-03-12T03:13:08.918Z,217.37
2019-03-12T03:17:20.157Z,211.03
2019-03-12T03:21:30.786Z,223.73
2019-03-12T03:25:42.012Z,216.60
2019-03-12T03:29:53.545Z,212.80
2019-03-12T03:34:04.739Z,218.17
2019-03-12T03:38:16.011Z,215.40
2019-03-12T03:42:28.894Z,214.63
2019-03-12T03:46:40.153Z,214.63
2019-03-12T03:50:51.400Z,217.77
2019-03-12T03:55:02.776Z,217.73
2019-03-12T03:59:14.068Z,215.47
2019-03-12T04:03:25.334Z,219.70
2019-03-12T04:07:36.591Z,219.80
2019-03-12T04:11:47.818Z,217.03
2019-03-12T04:16:00.214Z,212.40
2019-03-12T04:20:13.356Z,215.77
2019-03-12T04:24:24.511Z,211.23
2019-03-12T04:28:35.969Z,215.20
2019-03-12T04:32:49.481Z,212.77
2019-03-12T04:37:02.472Z,214.43
2019-03-12T04:41:13.596Z,225.87
2019-03-12T04:45:25.705Z,224.80
2019-03-12T04:49:36.876Z,202.40
2019-03-12T04:53:48.613Z,207.07
2019-03-12T04:57:59.955Z,209.17
2019-03-12T05:02:12.506Z,227.13
2019-03-12T05:06:25.313Z,207.57
2019-03-12T05:10:36.608Z,209.87
2019-03-12T05:14:49.490Z,209.70
2019-03-12T05:19:00.918Z,214.00
2019-03-12T05:23:12.330Z,217.07
2019-03-12T05:27:25.111Z,208.50
2019-03-12T05:31:38.177Z,219.47
2019-03-12T05:35:49.405Z,226.50
2019-03-12T05:40:00.734Z,218.87
2019-03-12T05:44:12.140Z,215.10
2019-03-12T05:48:24.031Z,204.77
2019-03-12T05:52:35.702Z,201.53
2019-03-12T05:56:46.914Z,202.33
2019-03-12T06:00:59.310Z,210.63
2019-03-12T06:05:10.787Z,212.33
2019-03-12T06:09:30.093Z,217.27
2019-03-12T06:13:34.656Z,206.27
2019-03-12T06:17:45.821Z,205.90
2019-03-12T06:21:58.780Z,217.30
2019-03-12T06:26:10.485Z,207.23
2019-03-12T06:30:25.980Z,211.60
2019-03-12T06:34:39.040Z,205.37
2019-03-12T06:39:08.569Z,205.67
2019-03-12T06:43:37.757Z,213.87
2019-03-12T06:48:07.594Z,202.23
2019-03-12T06:52:23.099Z,207.97
2019-03-12T06:56:46.359Z,206.47
2019-03-12T07:01:02.160Z,207.07
2019-03-12T07:05:14.961Z,205.77
2019-03-12T07:09:28.279Z,204.87
2019-03-12T07:13:41.101Z,206.70
2019-03-12T07:17:54.959Z,198.00
2019-03-12T07:22:12.040Z,206.63
2019-03-12T07:26:42.775Z,210.27
2019-03-12T07:31:00.941Z,213.33
2019-03-12T07:35:32.038Z,204.20
2019-03-12T07:39:47.737Z,209.80
2019-03-12T07:44:17.215Z,206.77
2019-03-12T07:48:46.634Z,206.87
2019-03-12T07:53:15.839Z,210.83
2019-03-12T07:57:29.392Z,212.43
2019-03-12T08:01:51.223Z,211.70
2019-03-12T08:06:06.539Z,209.83
2019-03-12T08:10:19.377Z,215.80
2019-03-12T08:14:49.209Z,211.57
2019-03-12T08:19:05.624Z,207.47
2019-03-12T08:23:34.703Z,214.33
2019-03-12T08:28:02.682Z,213.80
2019-03-12T08:32:16.955Z,210.63
2019-03-12T08:36:34.293Z,221.80
2019-03-12T08:41:03.675Z,218.30
2019-03-12T08:45:32.782Z,219.27
2019-03-12T08:50:02.593Z,219.60
2019-03-12T08:54:27.398Z,214.27
2019-03-12T08:58:49.181Z,217.00
2019-03-12T09:03:06.219Z,220.05
2019-03-12T09:07:25.668Z,217.43
2019-03-12T09:11:41.289Z,224.93
2019-03-12T09:16:09.527Z,219.87
2019-03-12T09:20:39.415Z,225.07
2019-03-12T09:24:55.011Z,223.07
2019-03-12T09:29:16.804Z,220.40
2019-03-12T09:33:45.795Z,223.50
2019-03-12T09:37:58.657Z,224.60
2019-03-12T09:42:27.488Z,218.53
2019-03-12T09:46:42.555Z,229.90
2019-03-12T09:51:01.779Z,226.40
2019-03-12T09:55:20.584Z,224.53
2019-03-12T09:59:51.890Z,234.50
2019-03-12T10:04:07.063Z,226.43
2019-03-12T10:08:36.954Z,232.43
2019-03-12T10:12:52.803Z,237.07
2019-03-12T10:17:22.734Z,229.13
2019-03-12T10:21:35.588Z,223.50
2019-03-12T10:26:04.793Z,228.70
2019-03-12T10:30:37.536Z,229.10
2019-03-12T10:35:01.251Z,228.33
2019-03-12T10:40:07.825Z,224.40
2019-03-12T10:44:20.929Z,225.87
2019-03-12T10:48:32.094Z,226.10
2019-03-12T10:52:43.577Z,244.47
2019-03-12T10:56:54.920Z,227.13
2019-03-12T11:01:06.150Z,227.97
2019-03-12T11:05:18.819Z,242.27
2019-03-12T11:09:30.720Z,229.10
2019-03-12T11:13:42.128Z,235.27
2019-03-12T11:17:54.851Z,234.37
2019-03-12T11:22:05.001Z,236.57
2019-03-12T11:26:17.072Z,243.67
2019-03-12T11:30:28.434Z,239.30
2019-03-12T11:34:40.965Z,232.57
2019-03-12T11:38:52.249Z,231.23
2019-03-12T11:43:03.695Z,229.17
2019-03-12T11:47:15.042Z,242.33
2019-03-12T11:51:27.922Z,236.63
2019-03-12T11:55:40.742Z,244.63
2019-03-12T11:59:52.075Z,236.70
2019-03-12T12:04:03.449Z,239.23
2019-03-12T12:08:14.723Z,238.50
2019-03-12T12:12:25.970Z,247.23
2019-03-12T12:16:37.198Z,236.27
2019-03-12T12:20:48.579Z,234.77
2019-03-12T12:24:59.753Z,238.93
2019-03-12T12:29:11.040Z,232.97
2019-03-12T12:33:23.709Z,229.30
2019-03-12T12:37:34.849Z,235.37
2019-03-12T12:41:46.142Z,236.30
2019-03-12T12:45:59.026Z,235.10
2019-03-12T12:50:10.429Z,236.83
2019-03-12T12:54:21.607Z,225.27
2019-03-12T12:58:33.840Z,230.70
2019-03-12T13:02:45.202Z,228.53
2019-03-12T13:06:56.882Z,230.77
2019-03-12T13:11:09.569Z,224.37
2019-03-12T13:15:21.104Z,224.83
2019-03-12T13:19:33.952Z,234.17
2019-03-12T13:23:44.289Z,227.83
2019-03-12T13:27:55.584Z,229.00
2019-03-12T13:32:13.464Z,239.90
2019-03-12T13:36:19.892Z,225.00
2019-03-12T13:40:32.937Z,233.17
2019-03-12T13:44:44.753Z,237.23
2019-03-12T13:48:55.908Z,231.10
2019-03-12T13:53:07.138Z,229.07
2019-03-12T13:57:20.736Z,236.00
2019-03-12T14:01:32.069Z,229.37
2019-03-12T14:05:43.328Z,231.10
2019-03-12T14:09:53.966Z,242.83
2019-03-12T14:14:05.301Z,233.20
2019-03-12T14:18:16.622Z,231.90
2019-03-12T14:22:28.792Z,235.40
2019-03-12T14:26:40.113Z,228.80
2019-03-12T14:30:52.984Z,237.47
2019-03-12T14:35:05.587Z,232.97
2019-03-12T14:39:17.830Z,248.97
2019-03-12T14:43:29.061Z,231.13
2019-03-12T14:47:40.352Z,237.33
2019-03-12T14:52:03.608Z,231.27
2019-03-12T14:56:15.511Z,239.43
2019-03-12T15:00:27.747Z,233.50
2019-03-12T15:04:40.059Z,233.43
2019-03-12T15:08:51.179Z,229.40
2019-03-12T15:13:02.338Z,232.23
2019-03-12T15:17:13.572Z,228.22
2019-03-12T15:21:27.510Z,245.80
2019-03-12T15:25:38.633Z,234.20
2019-03-12T15:29:49.929Z,233.00
2019-03-12T15:34:01.312Z,227.03
2019-03-12T15:38:13.839Z,229.67
2019-03-12T15:42:24.992Z,227.37
2019-03-12T15:46:36.382Z,235.40
2019-03-12T15:50:47.537Z,231.80
2019-03-12T15:54:58.806Z,234.37
2019-03-12T15:59:09.965Z,234.93
2019-03-12T16:03:23.901Z,226.13
2019-03-12T16:07:35.134Z,238.13
2019-03-12T16:11:46.566Z,226.30
2019-03-12T16:15:57.942Z,229.07
2019-03-12T16:20:25.801Z,227.37
2019-03-12T16:24:37.002Z,235.93
2019-03-12T16:28:49.135Z,237.70
2019-03-12T16:33:03.919Z,249.00
2019-03-12T16:37:18.218Z,240.30
2019-03-12T16:41:29.379Z,228.03
2019-03-12T16:45:40.614Z,229.03
2019-03-12T16:49:51.859Z,221.43
2019-03-12T16:54:05.490Z,232.77
2019-03-12T16:58:18.474Z,227.57
2019-03-12T17:02:29.822Z,238.17
2019-03-12T17:06:41.005Z,227.83
2019-03-12T17:11:00.841Z,227.70
2019-03-12T17:15:08.264Z,229.40
2019-03-12T17:19:19.523Z,231.80
2019-03-12T17:23:30.791Z,226.60
2019-03-12T17:27:40.977Z,235.63
2019-03-12T17:31:53.359Z,225.63
2019-03-12T17:36:06.811Z,230.13
2019-03-12T17:40:21.408Z,225.17
2019-03-12T17:44:35.440Z,229.50
2019-03-12T17:48:46.647Z,231.77
2019-03-12T17:52:57.903Z,231.70
2019-03-12T17:57:09.155Z,222.43
2019-03-12T18:01:20.620Z,232.97
2019-03-12T18:05:31.779Z,227.27
2019-03-12T18:09:43.058Z,223.50
2019-03-12T18:13:53.691Z,226.77
2019-03-12T18:18:05.078Z,228.40
2019-03-12T18:22:16.235Z,228.90
2019-03-12T18:26:27.910Z,225.43
2019-03-12T18:30:51.143Z,220.67
2019-03-12T18:34:54.585Z,231.53
2019-03-12T18:39:07.419Z,222.87
2019-03-12T18:43:18.695Z,220.30
2019-03-12T18:47:30.903Z,226.23
2019-03-12T18:51:42.330Z,230.47
2019-03-12T18:55:57.091Z,231.13
2019-03-12T19:00:12.720Z,224.50
2019-03-12T19:04:24.125Z,216.77
2019-03-12T19:08:36.778Z,220.80
2019-03-12T19:12:50.342Z,224.00
2019-03-12T19:17:02.675Z,225.57
2019-03-12T19:21:15.350Z,222.93
2019-03-12T19:25:43.835Z,225.97
2019-03-12T19:29:55.252Z,224.83
2019-03-12T19:34:07.526Z,226.27
2019-03-12T19:38:18.853Z,224.23
2019-03-12T19:42:30.020Z,228.57
2019-03-12T19:46:42.680Z,225.93
2019-03-12T19:50:53.902Z,224.70
2019-03-12T19:55:06.067Z,227.33
2019-03-12T19:59:16.101Z,220.10
2019-03-12T20:03:27.286Z,218.77
2019-03-12T20:07:38.699Z,223.10
2019-03-12T20:12:05.106Z,224.57
2019-03-12T20:16:52.997Z,228.40
2019-03-12T20:21:07.359Z,228.20
2019-03-12T20:25:49.120Z,222.90
2019-03-12T20:30:35.708Z,222.10
2019-03-12T20:35:05.352Z,230.03
2019-03-12T20:39:53.925Z,230.23
2019-03-12T20:44:20.051Z,227.87
2019-03-12T20:48:50.925Z,223.70
2019-03-12T20:53:20.536Z,221.23
2019-03-12T20:57:43.280Z,224.37
2019-03-12T21:02:30.996Z,223.67
2019-03-12T21:07:18.774Z,225.93
2019-03-12T21:12:06.906Z,226.73
2019-03-12T21:16:23.159Z,222.20
2019-03-12T21:20:54.394Z,222.07
2019-03-12T21:25:17.527Z,217.33
2019-03-12T21:29:43.061Z,225.43
2019-03-12T21:33:54.223Z,218.00
2019-03-12T21:38:05.577Z,233.67
2019-03-12T21:42:16.795Z,224.93
2019-03-12T21:46:28.048Z,218.13
2019-03-12T21:50:39.351Z,221.17
2019-03-12T21:54:50.817Z,225.77
2019-03-12T21:59:02.259Z,224.50
2019-03-12T22:03:16.275Z,223.67
2019-03-12T22:07:27.163Z,217.97
2019-03-12T22:11:39.791Z,227.93
2019-03-12T22:15:55.774Z,224.63
2019-03-12T22:20:11.964Z,226.50
2019-03-12T22:24:23.215Z,221.90
2019-03-12T22:28:34.655Z,215.60
2019-03-12T22:32:45.970Z,230.93
2019-03-12T22:36:57.159Z,237.87
2019-03-12T22:41:10.252Z,224.33
2019-03-12T22:45:21.386Z,224.70
2019-03-12T22:49:34.378Z,231.80
2019-03-12T22:53:45.724Z,227.57
2019-03-12T22:57:57.068Z,231.43
2019-03-12T23:02:07.402Z,223.83
2019-03-12T23:06:19.803Z,218.13
2019-03-12T23:10:32.099Z,227.32
2019-03-12T23:14:43.542Z,229.80
2019-03-12T23:18:54.822Z,232.40
2019-03-12T23:23:06.355Z,223.63
2019-03-12T23:27:19.929Z,222.27
2019-03-12T23:31:32.871Z,221.70
2019-03-12T23:35:45.041Z,229.17
2019-03-12T23:39:56.384Z,233.67
2019-03-12T23:44:07.684Z,223.03
2019-03-12T23:48:19.043Z,225.43
2019-03-12T23:52:30.491Z,228.10
2019-03-12T23:56:41.956Z,230.30
